sensor_id;sensor_type;location;lat;lon;timestamp;pressure;altitude;pressure_sealevel;temperature;humidity
58753;BME280;44525;46.052;13.610;2023-07-24T00:01:48;100651.31;;;19.68;100.00
58753;BME280;44525;46.052;13.610;2023-07-24T00:04:14;100642.66;;;19.90;100.00
58753;BME280;44525;46.052;13.610;2023-07-24T00:06:39;100643.53;;;19.82;100.00
58753;BME280;44525;46.052;13.610;2023-07-24T00:09:04;100637.22;;;20.06;100.00
58753;BME280;44525;46.052;13.610;2023-07-24T00:11:30;100644.13;;;20.12;100.00
58753;BME280;44525;46.052;13.610;2023-07-24T00:13:55;100640.13;;;19.97;100.00
58753;BME280;44525;46.052;13.610;2023-07-24T00:16:20;100640.91;;;19.98;100.00
58753;BME280;44525;46.052;13.610;2023-07-24T00:18:46;100632.66;;;19.86;100.00
58753;BME280;44525;46.052;13.610;2023-07-24T00:21:12;100630.78;;;19.90;100.00
58753;BME280;44525;46.052;13.610;2023-07-24T00:23:38;100622.19;;;19.79;100.00
58753;BME280;44525;46.052;13.610;2023-07-24T00:26:04;100620.00;;;19.85;100.00
58753;BME280;44525;46.052;13.610;2023-07-24T00:28:29;100628.16;;;19.93;100.00
58753;BME280;44525;46.052;13.610;2023-07-24T00:30:55;100627.59;;;19.88;100.00
58753;BME280;44525;46.052;13.610;2023-07-24T00:33:21;100615.03;;;19.66;100.00
58753;BME280;44525;46.052;13.610;2023-07-24T00:35:46;100617.78;;;19.53;100.00
58753;BME280;44525;46.052;13.610;2023-07-24T00:38:12;100627.16;;;19.40;100.00
58753;BME280;44525;46.052;13.610;2023-07-24T00:40:37;100614.00;;;19.70;100.00
58753;BME280;44525;46.052;13.610;2023-07-24T00:43:03;100621.00;;;19.68;100.00
58753;BME280;44525;46.052;13.610;2023-07-24T00:45:28;100617.66;;;19.50;100.00
58753;BME280;44525;46.052;13.610;2023-07-24T00:47:54;100617.78;;;19.66;100.00
58753;BME280;44525;46.052;13.610;2023-07-24T00:50:19;100613.91;;;19.67;100.00
58753;BME280;44525;46.052;13.610;2023-07-24T00:52:45;100612.97;;;19.62;100.00
58753;BME280;44525;46.052;13.610;2023-07-24T00:55:12;100615.59;;;19.59;100.00
58753;BME280;44525;46.052;13.610;2023-07-24T00:57:38;100611.81;;;19.51;100.00
58753;BME280;44525;46.052;13.610;2023-07-24T01:00:03;100612.84;;;19.59;100.00
58753;BME280;44525;46.052;13.610;2023-07-24T01:02:30;100607.69;;;18.99;100.00
58753;BME280;44525;46.052;13.610;2023-07-24T01:04:55;100611.22;;;18.79;100.00
58753;BME280;44525;46.052;13.610;2023-07-24T01:07:20;100606.97;;;18.90;100.00
58753;BME280;44525;46.052;13.610;2023-07-24T01:09:46;100607.84;;;18.61;100.00
58753;BME280;44525;46.052;13.610;2023-07-24T01:12:40;100610.25;;;18.62;100.00
58753;BME280;44525;46.052;13.610;2023-07-24T01:17:42;100601.47;;;18.90;100.00
58753;BME280;44525;46.052;13.610;2023-07-24T01:20:12;100602.03;;;18.74;100.00
58753;BME280;44525;46.052;13.610;2023-07-24T01:22:54;100601.97;;;18.83;100.00
58753;BME280;44525;46.052;13.610;2023-07-24T01:25:28;100603.78;;;18.79;100.00
58753;BME280;44525;46.052;13.610;2023-07-24T01:27:56;100602.94;;;18.66;100.00
58753;BME280;44525;46.052;13.610;2023-07-24T01:30:22;100603.34;;;18.56;100.00
58753;BME280;44525;46.052;13.610;2023-07-24T01:32:47;100602.59;;;18.68;100.00
58753;BME280;44525;46.052;13.610;2023-07-24T01:35:13;100598.69;;;18.69;100.00
58753;BME280;44525;46.052;13.610;2023-07-24T01:37:39;100595.13;;;18.68;100.00
58753;BME280;44525;46.052;13.610;2023-07-24T01:40:07;100600.31;;;18.70;100.00
58753;BME280;44525;46.052;13.610;2023-07-24T01:42:34;100587.69;;;18.48;100.00
58753;BME280;44525;46.052;13.610;2023-07-24T01:44:59;100591.66;;;18.17;100.00
58753;BME280;44525;46.052;13.610;2023-07-24T01:47:24;100590.25;;;18.32;100.00
58753;BME280;44525;46.052;13.610;2023-07-24T01:49:50;100588.94;;;18.08;100.00
58753;BME280;44525;46.052;13.610;2023-07-24T01:52:16;100581.91;;;17.98;100.00
58753;BME280;44525;46.052;13.610;2023-07-24T01:54:41;100572.78;;;18.06;100.00
58753;BME280;44525;46.052;13.610;2023-07-24T01:57:06;100571.13;;;18.14;100.00
58753;BME280;44525;46.052;13.610;2023-07-24T01:59:32;100563.81;;;18.18;100.00
58753;BME280;44525;46.052;13.610;2023-07-24T02:01:57;100563.22;;;18.13;100.00
58753;BME280;44525;46.052;13.610;2023-07-24T02:04:22;100567.63;;;18.05;100.00
58753;BME280;44525;46.052;13.610;2023-07-24T02:06:48;100565.72;;;18.27;100.00
58753;BME280;44525;46.052;13.610;2023-07-24T02:09:14;100561.56;;;18.20;100.00
58753;BME280;44525;46.052;13.610;2023-07-24T02:11:40;100555.50;;;18.27;100.00
58753;BME280;44525;46.052;13.610;2023-07-24T02:14:05;100553.78;;;18.22;100.00
58753;BME280;44525;46.052;13.610;2023-07-24T02:16:31;100553.78;;;18.22;100.00
58753;BME280;44525;46.052;13.610;2023-07-24T02:18:56;100544.63;;;18.10;100.00
58753;BME280;44525;46.052;13.610;2023-07-24T02:21:21;100557.47;;;18.05;100.00
58753;BME280;44525;46.052;13.610;2023-07-24T02:23:47;100550.34;;;18.04;100.00
58753;BME280;44525;46.052;13.610;2023-07-24T02:26:12;100543.81;;;17.88;100.00
58753;BME280;44525;46.052;13.610;2023-07-24T02:28:37;100540.22;;;17.96;100.00
58753;BME280;44525;46.052;13.610;2023-07-24T02:31:03;100546.88;;;17.86;100.00
58753;BME280;44525;46.052;13.610;2023-07-24T02:33:28;100544.63;;;18.10;100.00
58753;BME280;44525;46.052;13.610;2023-07-24T02:35:53;100533.91;;;17.96;100.00
58753;BME280;44525;46.052;13.610;2023-07-24T02:38:19;100533.44;;;17.94;100.00
58753;BME280;44525;46.052;13.610;2023-07-24T02:40:44;100523.53;;;18.01;100.00
58753;BME280;44525;46.052;13.610;2023-07-24T02:43:10;100525.47;;;18.01;100.00
58753;BME280;44525;46.052;13.610;2023-07-24T02:45:36;100525.00;;;17.99;100.00
58753;BME280;44525;46.052;13.610;2023-07-24T02:48:02;100525.19;;;17.94;100.00
58753;BME280;44525;46.052;13.610;2023-07-24T02:50:28;100520.19;;;18.17;100.00
58753;BME280;44525;46.052;13.610;2023-07-24T02:52:53;100528.41;;;17.96;100.00
58753;BME280;44525;46.052;13.610;2023-07-24T02:55:18;100534.94;;;17.82;100.00
58753;BME280;44525;46.052;13.610;2023-07-24T02:57:44;100524.38;;;17.93;100.00
58753;BME280;44525;46.052;13.610;2023-07-24T03:00:09;100523.28;;;17.85;100.00
58753;BME280;44525;46.052;13.610;2023-07-24T03:02:35;100525.41;;;17.80;100.00
58753;BME280;44525;46.052;13.610;2023-07-24T03:05:00;100530.41;;;17.86;100.00
58753;BME280;44525;46.052;13.610;2023-07-24T03:07:25;100537.47;;;17.66;100.00
58753;BME280;44525;46.052;13.610;2023-07-24T03:09:51;100542.06;;;17.83;100.00
58753;BME280;44525;46.052;13.610;2023-07-24T03:12:16;100546.25;;;17.90;100.00
58753;BME280;44525;46.052;13.610;2023-07-24T03:14:42;100540.38;;;18.00;100.00
58753;BME280;44525;46.052;13.610;2023-07-24T03:17:07;100543.44;;;17.98;100.00
58753;BME280;44525;46.052;13.610;2023-07-24T03:19:32;100546.72;;;17.92;100.00
58753;BME280;44525;46.052;13.610;2023-07-24T03:21:57;100543.56;;;18.02;100.00
58753;BME280;44525;46.052;13.610;2023-07-24T03:24:23;100549.28;;;17.97;100.00
58753;BME280;44525;46.052;13.610;2023-07-24T03:26:48;100552.88;;;18.10;100.00
58753;BME280;44525;46.052;13.610;2023-07-24T03:29:14;100539.69;;;18.03;100.00
58753;BME280;44525;46.052;13.610;2023-07-24T03:31:39;100551.66;;;17.68;100.00
58753;BME280;44525;46.052;13.610;2023-07-24T03:34:04;100546.56;;;17.88;100.00
58753;BME280;44525;46.052;13.610;2023-07-24T03:36:30;100537.19;;;17.80;100.00
58753;BME280;44525;46.052;13.610;2023-07-24T03:38:55;100542.97;;;17.87;100.00
58753;BME280;44525;46.052;13.610;2023-07-24T03:41:20;100542.63;;;17.98;100.00
58753;BME280;44525;46.052;13.610;2023-07-24T03:43:45;100539.06;;;17.97;100.00
58753;BME280;44525;46.052;13.610;2023-07-24T03:46:11;100532.31;;;17.95;100.00
58753;BME280;44525;46.052;13.610;2023-07-24T03:48:36;100530.78;;;17.76;100.00
58753;BME280;44525;46.052;13.610;2023-07-24T03:51:02;100531.91;;;17.75;100.00
58753;BME280;44525;46.052;13.610;2023-07-24T03:53:28;100530.63;;;17.73;100.00
58753;BME280;44525;46.052;13.610;2023-07-24T03:55:53;100532.25;;;17.74;100.00
58753;BME280;44525;46.052;13.610;2023-07-24T03:58:19;100534.00;;;17.78;100.00
58753;BME280;44525;46.052;13.610;2023-07-24T04:00:44;100526.50;;;17.87;100.00
58753;BME280;44525;46.052;13.610;2023-07-24T04:03:10;100521.97;;;17.92;100.00
58753;BME280;44525;46.052;13.610;2023-07-24T04:05:36;100521.84;;;18.09;100.00
58753;BME280;44525;46.052;13.610;2023-07-24T04:08:02;100521.16;;;18.33;100.00
58753;BME280;44525;46.052;13.610;2023-07-24T04:10:27;100521.56;;;18.23;100.00
58753;BME280;44525;46.052;13.610;2023-07-24T04:12:53;100521.06;;;18.30;100.00
58753;BME280;44525;46.052;13.610;2023-07-24T04:15:19;100516.63;;;18.37;100.00
58753;BME280;44525;46.052;13.610;2023-07-24T04:17:44;100517.41;;;18.38;100.00
58753;BME280;44525;46.052;13.610;2023-07-24T04:20:09;100519.88;;;18.52;100.00
58753;BME280;44525;46.052;13.610;2023-07-24T04:22:35;100516.03;;;18.65;100.00
58753;BME280;44525;46.052;13.610;2023-07-24T04:25:00;100516.72;;;18.62;100.00
58753;BME280;44525;46.052;13.610;2023-07-24T04:27:26;100514.00;;;18.74;100.00
58753;BME280;44525;46.052;13.610;2023-07-24T04:29:51;100516.66;;;18.83;100.00
58753;BME280;44525;46.052;13.610;2023-07-24T04:32:16;100504.91;;;18.95;100.00
58753;BME280;44525;46.052;13.610;2023-07-24T04:34:42;100495.03;;;18.94;100.00
58753;BME280;44525;46.052;13.610;2023-07-24T04:37:07;100500.88;;;18.92;100.00
58753;BME280;44525;46.052;13.610;2023-07-24T04:39:32;100506.63;;;18.87;100.00
58753;BME280;44525;46.052;13.610;2023-07-24T04:41:59;100503.63;;;18.92;100.00
58753;BME280;44525;46.052;13.610;2023-07-24T04:44:24;100512.81;;;18.97;100.00
58753;BME280;44525;46.052;13.610;2023-07-24T04:46:49;100505.25;;;18.93;100.00
58753;BME280;44525;46.052;13.610;2023-07-24T04:49:15;100517.91;;;19.19;100.00
58753;BME280;44525;46.052;13.610;2023-07-24T04:51:41;100522.28;;;19.45;100.00
58753;BME280;44525;46.052;13.610;2023-07-24T04:54:06;100519.53;;;19.45;100.00
58753;BME280;44525;46.052;13.610;2023-07-24T04:56:31;100513.56;;;19.55;100.00
58753;BME280;44525;46.052;13.610;2023-07-24T04:58:57;100506.09;;;19.68;100.00
58753;BME280;44525;46.052;13.610;2023-07-24T05:01:22;100513.44;;;19.52;100.00
58753;BME280;44525;46.052;13.610;2023-07-24T05:03:47;100510.13;;;19.83;100.00
58753;BME280;44525;46.052;13.610;2023-07-24T05:06:13;100518.00;;;19.97;100.00
58753;BME280;44525;46.052;13.610;2023-07-24T05:08:38;100515.69;;;20.11;100.00
58753;BME280;44525;46.052;13.610;2023-07-24T05:11:03;100514.09;;;19.98;100.00
58753;BME280;44525;46.052;13.610;2023-07-24T05:13:29;100514.88;;;20.11;100.00
58753;BME280;44525;46.052;13.610;2023-07-24T05:15:54;100510.25;;;20.15;100.00
58753;BME280;44525;46.052;13.610;2023-07-24T05:18:19;100512.50;;;20.38;100.00
58753;BME280;44525;46.052;13.610;2023-07-24T05:20:46;100507.19;;;20.45;100.00
58753;BME280;44525;46.052;13.610;2023-07-24T05:23:12;100503.75;;;20.36;100.00
58753;BME280;44525;46.052;13.610;2023-07-24T05:25:38;100501.59;;;20.57;100.00
58753;BME280;44525;46.052;13.610;2023-07-24T05:28:03;100498.97;;;20.77;100.00
58753;BME280;44525;46.052;13.610;2023-07-24T05:30:28;100499.72;;;20.90;100.00
58753;BME280;44525;46.052;13.610;2023-07-24T05:32:54;100509.53;;;21.03;100.00
58753;BME280;44525;46.052;13.610;2023-07-24T05:35:19;100501.97;;;21.16;99.44
58753;BME280;44525;46.052;13.610;2023-07-24T05:37:46;100506.66;;;21.31;96.90
58753;BME280;44525;46.052;13.610;2023-07-24T05:40:11;100501.69;;;21.53;97.40
58753;BME280;44525;46.052;13.610;2023-07-24T05:42:37;100517.16;;;21.73;95.47
58753;BME280;44525;46.052;13.610;2023-07-24T05:45:07;100514.44;;;21.93;94.16
58753;BME280;44525;46.052;13.610;2023-07-24T05:47:33;100508.34;;;22.03;92.44
58753;BME280;44525;46.052;13.610;2023-07-24T05:49:59;100510.06;;;21.92;90.17
58753;BME280;44525;46.052;13.610;2023-07-24T05:52:24;100510.91;;;21.77;91.10
58753;BME280;44525;46.052;13.610;2023-07-24T05:54:49;100517.06;;;21.70;93.54
58753;BME280;44525;46.052;13.610;2023-07-24T05:57:14;100530.97;;;21.89;93.34
58753;BME280;44525;46.052;13.610;2023-07-24T05:59:40;100526.13;;;21.86;92.66
58753;BME280;44525;46.052;13.610;2023-07-24T06:02:05;100508.34;;;22.03;93.26
58753;BME280;44525;46.052;13.610;2023-07-24T06:04:32;100501.19;;;22.02;93.74
58753;BME280;44525;46.052;13.610;2023-07-24T06:06:58;100497.13;;;22.16;92.24
58753;BME280;44525;46.052;13.610;2023-07-24T06:09:23;100501.88;;;22.35;90.26
58753;BME280;44525;46.052;13.610;2023-07-24T06:11:48;100496.41;;;22.58;88.75
58753;BME280;44525;46.052;13.610;2023-07-24T06:14:14;100492.16;;;22.64;87.96
58753;BME280;44525;46.052;13.610;2023-07-24T06:16:39;100487.13;;;22.70;88.33
58753;BME280;44525;46.052;13.610;2023-07-24T06:19:05;100484.50;;;22.77;88.37
58753;BME280;44525;46.052;13.610;2023-07-24T06:21:30;100487.16;;;22.93;85.17
58753;BME280;44525;46.052;13.610;2023-07-24T06:23:55;100488.50;;;23.03;86.40
58753;BME280;44525;46.052;13.610;2023-07-24T06:26:21;100488.75;;;23.40;83.38
58753;BME280;44525;46.052;13.610;2023-07-24T06:28:47;100478.06;;;23.69;82.63
58753;BME280;44525;46.052;13.610;2023-07-24T06:31:12;100487.28;;;23.77;82.49
58753;BME280;44525;46.052;13.610;2023-07-24T06:33:37;100486.00;;;23.97;81.80
58753;BME280;44525;46.052;13.610;2023-07-24T06:36:03;100493.94;;;24.33;79.68
58753;BME280;44525;46.052;13.610;2023-07-24T06:38:28;100491.84;;;24.57;76.99
58753;BME280;44525;46.052;13.610;2023-07-24T06:40:54;100488.09;;;24.76;77.80
58753;BME280;44525;46.052;13.610;2023-07-24T06:43:19;100489.59;;;24.66;76.88
58753;BME280;44525;46.052;13.610;2023-07-24T06:45:44;100489.16;;;24.64;78.88
58753;BME280;44525;46.052;13.610;2023-07-24T06:48:10;100487.31;;;24.75;78.09
58753;BME280;44525;46.052;13.610;2023-07-24T06:50:35;100481.94;;;24.97;76.08
58753;BME280;44525;46.052;13.610;2023-07-24T06:53:00;100489.66;;;25.18;74.71
58753;BME280;44525;46.052;13.610;2023-07-24T06:55:26;100486.03;;;25.10;73.03
58753;BME280;44525;46.052;13.610;2023-07-24T06:57:51;100489.28;;;25.23;72.52
58753;BME280;44525;46.052;13.610;2023-07-24T07:00:17;100478.56;;;25.21;73.32
58753;BME280;44525;46.052;13.610;2023-07-24T07:02:42;100478.78;;;25.47;72.95
58753;BME280;44525;46.052;13.610;2023-07-24T07:05:07;100478.59;;;25.88;70.38
58753;BME280;44525;46.052;13.610;2023-07-24T07:07:33;100483.53;;;26.13;69.09
58753;BME280;44525;46.052;13.610;2023-07-24T07:09:58;100460.53;;;26.37;69.23
58753;BME280;44525;46.052;13.610;2023-07-24T07:12:23;100454.25;;;26.73;69.56
58753;BME280;44525;46.052;13.610;2023-07-24T07:14:49;100437.94;;;27.18;65.50
58753;BME280;44525;46.052;13.610;2023-07-24T07:17:14;100437.53;;;27.45;63.86
58753;BME280;44525;46.052;13.610;2023-07-24T07:19:40;100424.00;;;27.07;65.24
58753;BME280;44525;46.052;13.610;2023-07-24T07:22:05;100393.75;;;26.81;64.94
58753;BME280;44525;46.052;13.610;2023-07-24T07:24:30;100370.66;;;26.37;67.89
58753;BME280;44525;46.052;13.610;2023-07-24T07:26:56;100355.47;;;26.09;69.86
58753;BME280;44525;46.052;13.610;2023-07-24T07:29:21;100374.47;;;25.85;71.32
58753;BME280;44525;46.052;13.610;2023-07-24T07:31:47;100376.47;;;25.88;71.99
58753;BME280;44525;46.052;13.610;2023-07-24T07:34:12;100383.44;;;25.46;72.18
58753;BME280;44525;46.052;13.610;2023-07-24T07:36:37;100396.25;;;25.65;75.27
58753;BME280;44525;46.052;13.610;2023-07-24T07:39:03;100408.50;;;25.50;75.03
58753;BME280;44525;46.052;13.610;2023-07-24T07:41:28;100407.78;;;25.71;77.09
58753;BME280;44525;46.052;13.610;2023-07-24T07:43:54;100409.78;;;25.78;74.99
58753;BME280;44525;46.052;13.610;2023-07-24T07:46:20;100392.44;;;26.09;73.17
58753;BME280;44525;46.052;13.610;2023-07-24T07:48:45;100398.06;;;26.35;72.05
58753;BME280;44525;46.052;13.610;2023-07-24T07:51:11;100403.97;;;26.01;71.00
58753;BME280;44525;46.052;13.610;2023-07-24T07:53:37;100394.47;;;26.20;72.15
58753;BME280;44525;46.052;13.610;2023-07-24T07:56:04;100403.97;;;26.08;78.14
58753;BME280;44525;46.052;13.610;2023-07-24T07:58:29;100406.69;;;25.94;75.57
58753;BME280;44525;46.052;13.610;2023-07-24T08:00:55;100392.44;;;26.06;74.08
58753;BME280;44525;46.052;13.610;2023-07-24T08:03:20;100377.78;;;26.16;73.50
58753;BME280;44525;46.052;13.610;2023-07-24T08:05:46;100368.25;;;26.50;74.31
58753;BME280;44525;46.052;13.610;2023-07-24T08:08:11;100350.78;;;26.71;73.18
58753;BME280;44525;46.052;13.610;2023-07-24T08:10:38;100349.91;;;27.17;69.13
58753;BME280;44525;46.052;13.610;2023-07-24T08:13:03;100344.25;;;27.50;66.11
58753;BME280;44525;46.052;13.610;2023-07-24T08:15:29;100330.53;;;27.84;65.42
58753;BME280;44525;46.052;13.610;2023-07-24T08:17:58;100332.03;;;28.03;64.20
58753;BME280;44525;46.052;13.610;2023-07-24T08:20:24;100335.97;;;28.13;64.86
58753;BME280;44525;46.052;13.610;2023-07-24T08:22:49;100326.31;;;28.25;65.22
58753;BME280;44525;46.052;13.610;2023-07-24T08:25:14;100306.84;;;28.59;62.61
58753;BME280;44525;46.052;13.610;2023-07-24T08:27:40;100301.28;;;28.59;61.79
58753;BME280;44525;46.052;13.610;2023-07-24T08:30:06;100302.84;;;28.67;61.67
58753;BME280;44525;46.052;13.610;2023-07-24T08:32:31;100300.19;;;28.46;63.54
58753;BME280;44525;46.052;13.610;2023-07-24T08:34:57;100292.94;;;28.52;63.22
58753;BME280;44525;46.052;13.610;2023-07-24T08:37:22;100310.75;;;28.73;63.56
58753;BME280;44525;46.052;13.610;2023-07-24T08:39:47;100310.06;;;28.58;63.81
58753;BME280;44525;46.052;13.610;2023-07-24T08:42:13;100319.03;;;28.34;66.61
58753;BME280;44525;46.052;13.610;2023-07-24T08:44:38;100320.06;;;28.55;63.68
58753;BME280;44525;46.052;13.610;2023-07-24T08:47:04;100314.38;;;28.69;64.90
58753;BME280;44525;46.052;13.610;2023-07-24T08:49:32;100314.94;;;28.95;63.28
58753;BME280;44525;46.052;13.610;2023-07-24T08:51:58;100310.31;;;29.16;61.36
58753;BME280;44525;46.052;13.610;2023-07-24T08:54:26;100312.69;;;29.17;62.14
58753;BME280;44525;46.052;13.610;2023-07-24T08:56:52;100324.47;;;29.36;61.17
58753;BME280;44525;46.052;13.610;2023-07-24T08:59:17;100335.25;;;29.68;60.10
58753;BME280;44525;46.052;13.610;2023-07-24T09:01:43;100346.31;;;29.83;60.56
58753;BME280;44525;46.052;13.610;2023-07-24T09:04:08;100335.84;;;29.87;57.60
58753;BME280;44525;46.052;13.610;2023-07-24T09:06:34;100336.38;;;29.74;63.64
58753;BME280;44525;46.052;13.610;2023-07-24T09:09:00;100339.31;;;29.64;64.81
58753;BME280;44525;46.052;13.610;2023-07-24T09:11:26;100338.88;;;29.34;60.10
58753;BME280;44525;46.052;13.610;2023-07-24T09:13:51;100328.75;;;29.10;63.67
58753;BME280;44525;46.052;13.610;2023-07-24T09:16:24;100312.34;;;28.74;62.20
58753;BME280;44525;46.052;13.610;2023-07-24T09:18:50;100300.81;;;28.72;63.02
58753;BME280;44525;46.052;13.610;2023-07-24T09:21:31;100285.66;;;28.69;65.40
58753;BME280;44525;46.052;13.610;2023-07-24T09:23:57;100274.19;;;29.32;64.04
58753;BME280;44525;46.052;13.610;2023-07-24T09:26:23;100253.28;;;29.99;57.83
58753;BME280;44525;46.052;13.610;2023-07-24T09:28:54;100237.53;;;29.78;58.58
58753;BME280;44525;46.052;13.610;2023-07-24T09:31:20;100200.41;;;30.01;57.27
58753;BME280;44525;46.052;13.610;2023-07-24T09:33:45;100151.75;;;30.58;55.74
58753;BME280;44525;46.052;13.610;2023-07-24T09:36:11;100142.56;;;30.58;55.45
58753;BME280;44525;46.052;13.610;2023-07-24T09:38:38;100178.69;;;30.92;54.03
58753;BME280;44525;46.052;13.610;2023-07-24T09:41:05;100211.72;;;31.05;56.41
58753;BME280;44525;46.052;13.610;2023-07-24T09:43:31;100232.47;;;30.67;53.31
58753;BME280;44525;46.052;13.610;2023-07-24T09:45:57;100232.41;;;30.91;52.98
58753;BME280;44525;46.052;13.610;2023-07-24T09:48:25;100253.72;;;31.08;54.69
58753;BME280;44525;46.052;13.610;2023-07-24T09:50:57;100250.84;;;31.32;50.07
58753;BME280;44525;46.052;13.610;2023-07-24T09:53:47;100255.06;;;31.40;51.63
58753;BME280;44525;46.052;13.610;2023-07-24T09:56:18;100284.78;;;31.18;54.31
58753;BME280;44525;46.052;13.610;2023-07-24T09:58:44;100290.94;;;31.12;56.45
58753;BME280;44525;46.052;13.610;2023-07-24T10:01:11;100288.41;;;30.94;53.88
58753;BME280;44525;46.052;13.610;2023-07-24T10:03:44;100297.88;;;30.60;52.47
58753;BME280;44525;46.052;13.610;2023-07-24T10:06:10;100315.56;;;30.06;54.17
58753;BME280;44525;46.052;13.610;2023-07-24T10:08:36;100333.97;;;29.46;57.33
58753;BME280;44525;46.052;13.610;2023-07-24T10:11:03;100353.19;;;29.05;59.44
58753;BME280;44525;46.052;13.610;2023-07-24T10:13:29;100357.22;;;28.52;60.42
58753;BME280;44525;46.052;13.610;2023-07-24T10:15:55;100265.63;;;28.29;60.89
58753;BME280;44525;46.052;13.610;2023-07-24T10:18:26;100098.66;;;28.09;60.97
58753;BME280;44525;46.052;13.610;2023-07-24T10:21:00;100182.00;;;28.11;64.32
58753;BME280;44525;46.052;13.610;2023-07-24T10:23:26;100254.75;;;27.86;71.13
58753;BME280;44525;46.052;13.610;2023-07-24T10:25:52;100271.53;;;27.78;74.72
58753;BME280;44525;46.052;13.610;2023-07-24T10:28:18;100282.63;;;27.96;74.63
58753;BME280;44525;46.052;13.610;2023-07-24T10:30:44;100276.88;;;28.22;75.87
58753;BME280;44525;46.052;13.610;2023-07-24T10:33:33;100281.72;;;28.59;72.43
58753;BME280;44525;46.052;13.610;2023-07-24T10:36:06;100280.22;;;28.51;70.13
58753;BME280;44525;46.052;13.610;2023-07-24T10:38:36;100296.38;;;28.25;69.47
58753;BME280;44525;46.052;13.610;2023-07-24T10:41:03;100320.38;;;28.19;71.34
58753;BME280;44525;46.052;13.610;2023-07-24T10:43:29;100311.25;;;28.08;72.09
58753;BME280;44525;46.052;13.610;2023-07-24T10:45:54;100296.22;;;27.91;74.70
58753;BME280;44525;46.052;13.610;2023-07-24T10:48:23;100290.63;;;27.91;79.36
58753;BME280;44525;46.052;13.610;2023-07-24T10:50:50;100296.47;;;28.11;79.00
58753;BME280;44525;46.052;13.610;2023-07-24T10:53:18;100277.53;;;28.37;79.23
58753;BME280;44525;46.052;13.610;2023-07-24T10:55:44;100287.63;;;28.23;81.54
58753;BME280;44525;46.052;13.610;2023-07-24T10:58:13;100322.06;;;28.02;82.69
58753;BME280;44525;46.052;13.610;2023-07-24T11:00:42;100348.81;;;27.92;75.68
58753;BME280;44525;46.052;13.610;2023-07-24T11:03:13;100396.78;;;27.73;78.28
58753;BME280;44525;46.052;13.610;2023-07-24T11:05:42;100410.78;;;27.58;79.84
58753;BME280;44525;46.052;13.610;2023-07-24T11:08:18;100363.41;;;27.37;78.63
58753;BME280;44525;46.052;13.610;2023-07-24T11:10:48;100350.66;;;27.32;75.25
58753;BME280;44525;46.052;13.610;2023-07-24T11:13:15;100341.56;;;27.10;87.37
58753;BME280;44525;46.052;13.610;2023-07-24T11:15:40;100376.22;;;26.91;94.41
58753;BME280;44525;46.052;13.610;2023-07-24T11:18:06;100412.84;;;26.89;97.91
58753;BME280;44525;46.052;13.610;2023-07-24T11:20:38;100417.22;;;26.87;97.88
58753;BME280;44525;46.052;13.610;2023-07-24T11:23:08;100427.19;;;26.99;93.35
58753;BME280;44525;46.052;13.610;2023-07-24T11:25:33;100431.94;;;27.09;89.74
58753;BME280;44525;46.052;13.610;2023-07-24T11:27:59;100431.94;;;27.02;89.48
58753;BME280;44525;46.052;13.610;2023-07-24T11:30:24;100419.22;;;26.86;88.70
58753;BME280;44525;46.052;13.610;2023-07-24T11:32:51;100419.22;;;26.90;90.40
58753;BME280;44525;46.052;13.610;2023-07-24T11:35:17;100393.75;;;26.77;89.22
58753;BME280;44525;46.052;13.610;2023-07-24T11:37:42;100376.25;;;26.73;92.62
58753;BME280;44525;46.052;13.610;2023-07-24T11:40:08;100368.28;;;26.93;89.62
58753;BME280;44525;46.052;13.610;2023-07-24T11:42:41;100361.06;;;27.10;88.09
58753;BME280;44525;46.052;13.610;2023-07-24T11:45:08;100328.72;;;27.45;86.40
58753;BME280;44525;46.052;13.610;2023-07-24T11:47:48;100308.59;;;27.82;84.31
58753;BME280;44525;46.052;13.610;2023-07-24T11:50:14;100308.88;;;28.10;81.26
58753;BME280;44525;46.052;13.610;2023-07-24T11:52:42;100293.97;;;28.73;78.91
58753;BME280;44525;46.052;13.610;2023-07-24T11:55:15;100255.59;;;29.15;71.22
58753;BME280;44525;46.052;13.610;2023-07-24T11:57:41;100211.19;;;29.17;67.32
58753;BME280;44525;46.052;13.610;2023-07-24T12:00:18;100173.19;;;29.23;67.54
58753;BME280;44525;46.052;13.610;2023-07-24T12:02:44;100161.66;;;29.17;66.60
58753;BME280;44525;46.052;13.610;2023-07-24T12:05:10;100141.34;;;29.13;62.05
58753;BME280;44525;46.052;13.610;2023-07-24T12:07:35;100152.53;;;29.68;61.83
58753;BME280;44525;46.052;13.610;2023-07-24T12:10:03;100146.97;;;29.91;59.85
58753;BME280;44525;46.052;13.610;2023-07-24T12:12:48;100141.25;;;29.48;60.57
58753;BME280;44525;46.052;13.610;2023-07-24T12:15:14;100116.22;;;29.10;59.16
58753;BME280;44525;46.052;13.610;2023-07-24T12:17:40;100091.38;;;29.15;65.61
58753;BME280;44525;46.052;13.610;2023-07-24T12:20:07;100064.41;;;29.01;64.04
58753;BME280;44525;46.052;13.610;2023-07-24T12:22:35;100064.47;;;28.67;70.52
58753;BME280;44525;46.052;13.610;2023-07-24T12:25:04;100093.28;;;28.64;68.05
58753;BME280;44525;46.052;13.610;2023-07-24T12:27:30;100126.63;;;28.44;70.13
58753;BME280;44525;46.052;13.610;2023-07-24T12:29:56;100136.13;;;28.15;70.70
58753;BME280;44525;46.052;13.610;2023-07-24T12:32:21;100146.19;;;28.02;70.21
58753;BME280;44525;46.052;13.610;2023-07-24T12:34:49;100172.94;;;27.96;72.92